Time;durP1;ratioP1;P1;durP2;ratioP2;P2;SDS_P1;SDS_P2;PMS_P1;PMS_P2;Temp;Humidity;BMP_temperature;BMP_pressure;BME280_temperature;BME280_humidity;BME280_pressure;Samples;Min_cycle;Max_cycle;Signal;HPM_P1;HPM_P2
2022/04/15 00:01:15;;;;;;;10.77;5.40;;;;;;;13.40;42.81;100261.53;5050844;28;20028;-41
2022/04/15 00:03:41;;;;;;;9.05;5.30;;;;;;;13.41;42.69;100250.63;5050888;28;20021;-38
2022/04/15 00:06:08;;;;;;;10.55;5.40;;;;;;;13.54;42.35;100252.44;5050018;28;20017;-37
2022/04/15 00:08:35;;;;;;;7.70;5.30;;;;;;;13.58;42.04;100251.00;5049404;28;20060;-37
2022/04/15 00:11:01;;;;;;;25.48;15.27;;;;;;;13.41;42.76;100250.63;5049617;28;20040;-37
2022/04/15 00:13:29;;;;;;;20.40;11.70;;;;;;;13.28;43.00;100250.63;5049853;28;20424;-37
2022/04/15 00:15:55;;;;;;;9.52;5.55;;;;;;;13.26;43.20;100242.00;5049423;28;20024;-37
2022/04/15 00:18:21;;;;;;;8.65;5.25;;;;;;;13.30;43.68;100245.94;5049521;28;20552;-37
2022/04/15 00:20:47;;;;;;;9.73;5.28;;;;;;;13.39;43.76;100246.53;5049026;28;20108;-37
2022/04/15 00:23:12;;;;;;;14.27;5.32;;;;;;;13.47;43.24;100239.09;5049519;28;20021;-37
2022/04/15 00:25:37;;;;;;;10.23;5.13;;;;;;;13.23;44.45;100242.41;5049515;28;20112;-37
2022/04/15 00:28:03;;;;;;;10.65;5.45;;;;;;;13.02;44.90;100236.28;5049567;28;20029;-37
2022/04/15 00:30:29;;;;;;;12.90;5.32;;;;;;;13.06;44.84;100236.69;5049182;28;20028;-37
2022/04/15 00:32:54;;;;;;;11.73;5.75;;;;;;;13.02;44.95;100230.94;5049549;28;20024;-37
2022/04/15 00:35:20;;;;;;;13.90;5.50;;;;;;;13.02;44.35;100225.59;5049712;28;20031;-37
2022/04/15 00:37:48;;;;;;;12.77;5.85;;;;;;;13.21;44.92;100234.63;5049911;28;20092;-38
2022/04/15 00:40:14;;;;;;;9.60;5.50;;;;;;;13.16;44.82;100225.59;5049857;28;20489;-37
2022/04/15 00:42:39;;;;;;;12.25;6.20;;;;;;;13.05;44.68;100230.50;5049369;28;20063;-38
2022/04/15 00:45:09;;;;;;;10.85;6.00;;;;;;;13.12;45.15;100230.53;5049498;28;20029;-37
2022/04/15 00:47:43;;;;;;;;;;;;;;;13.28;44.78;100230.06;5050326;28;20035;-37
2022/04/15 00:50:09;;;;;;;11.25;5.63;;;;;;;13.03;44.55;100235.25;5049735;28;19909;-37
2022/04/15 00:52:39;;;;;;;12.98;5.95;;;;;;;12.90;44.57;100236.06;5049429;28;20021;-38
2022/04/15 00:55:06;;;;;;;11.48;6.80;;;;;;;12.75;45.95;100234.66;5049770;28;20076;-38
2022/04/15 00:57:34;;;;;;;11.55;6.05;;;;;;;12.78;45.91;100236.94;5049669;28;20030;-38
2022/04/15 01:00:01;;;;;;;10.70;5.82;;;;;;;12.66;45.37;100237.53;5052994;28;20041;-37
2022/04/15 01:02:28;;;;;;;14.18;6.72;;;;;;;12.70;45.70;100235.28;5053447;28;20037;-41
2022/04/15 01:04:55;;;;;;;13.88;6.72;;;;;;;12.77;44.85;100233.41;5053525;28;20025;-37
2022/04/15 01:07:25;;;;;;;13.65;6.80;;;;;;;12.80;44.60;100234.88;5053598;28;20040;-37
2022/04/15 01:09:52;;;;;;;17.75;6.90;;;;;;;12.73;45.21;100232.19;5053359;28;20049;-37
2022/04/15 01:12:20;;;;;;;15.50;7.20;;;;;;;12.82;45.24;100230.94;5053762;28;20039;-37
2022/04/15 01:14:47;;;;;;;18.30;7.65;;;;;;;12.75;44.68;100234.66;5052980;28;20029;-37
2022/04/15 01:17:13;;;;;;;21.30;7.68;;;;;;;12.78;45.59;100223.56;5053437;28;20029;-37
2022/04/15 01:19:38;;;;;;;26.15;7.95;;;;;;;12.64;44.80;100206.72;5053494;28;20028;-37
2022/04/15 01:22:11;;;;;;;18.25;7.25;;;;;;;12.76;45.48;100220.28;5053806;28;20052;-37
2022/04/15 01:24:38;;;;;;;17.88;8.75;;;;;;;12.70;44.74;100222.75;5053033;28;20029;-37
2022/04/15 01:27:08;;;;;;;17.73;8.43;;;;;;;12.41;46.33;100217.78;5053319;28;20167;-37
2022/04/15 01:29:38;;;;;;;16.67;8.13;;;;;;;12.38;45.54;100220.88;5053400;28;20044;-37
2022/04/15 01:32:04;;;;;;;;;;;;;;;12.87;44.58;100225.81;5053668;28;20163;-37
2022/04/15 01:34:30;;;;;;;13.48;7.72;;;;;;;12.73;44.79;100218.84;5052753;28;20058;-38
2022/04/15 01:36:56;;;;;;;18.10;7.60;;;;;;;12.46;45.64;100223.34;5052930;28;20568;-37
2022/04/15 01:39:21;;;;;;;17.65;7.20;;;;;;;12.36;46.04;100228.28;5052977;28;20024;-38
2022/04/15 01:41:47;;;;;;;15.68;7.20;;;;;;;12.34;46.18;100220.47;5053277;28;20029;-38
2022/04/15 01:44:15;;;;;;;17.38;7.97;;;;;;;12.13;46.13;100158.25;5052625;28;20021;-39
2022/04/15 01:46:42;;;;;;;10.27;6.60;;;;;;;12.36;44.89;100218.41;5052664;28;20036;-38
2022/04/15 01:49:08;;;;;;;13.75;6.95;;;;;;;12.22;45.72;100214.06;5052931;28;20037;-38
2022/04/15 01:51:35;;;;;;;12.77;6.60;;;;;;;12.20;44.91;100214.25;5052826;28;20065;-38
2022/04/15 01:54:01;;;;;;;10.43;6.53;;;;;;;12.39;43.72;100215.31;5052771;28;20025;-38
2022/04/15 01:56:27;;;;;;;10.75;6.53;;;;;;;12.30;44.34;100205.88;5052828;28;20121;-38
2022/04/15 01:58:52;;;;;;;17.08;7.18;;;;;;;12.23;45.33;100205.06;5052710;28;20112;-38
2022/04/15 02:01:18;;;;;;;14.35;6.72;;;;;;;12.15;45.26;100199.88;5052528;28;20114;-38
2022/04/15 02:03:43;;;;;;;12.20;6.40;;;;;;;12.23;45.23;100205.06;5052445;28;20080;-38
2022/04/15 02:06:09;;;;;;;13.43;6.75;;;;;;;12.24;44.88;100199.53;5051843;28;20119;-37
2022/04/15 02:08:34;;;;;;;10.00;6.50;;;;;;;12.19;44.37;100171.81;5052317;28;20114;-37
2022/04/15 02:11:00;;;;;;;10.43;6.38;;;;;;;12.26;44.30;100196.63;5051277;28;20457;-37
2022/04/15 02:13:25;;;;;;;14.05;6.45;;;;;;;12.09;44.94;100193.53;5052523;28;20090;-37
2022/04/15 02:15:50;;;;;;;11.73;6.45;;;;;;;12.17;44.14;100188.00;5052157;28;20025;-36
2022/04/15 02:18:17;;;;;;;13.38;6.75;;;;;;;12.32;43.96;100193.97;5051963;28;20035;-37
2022/04/15 02:20:42;;;;;;;11.13;6.82;;;;;;;12.13;44.66;100192.94;5052639;28;20474;-36
2022/04/15 02:23:08;;;;;;;16.00;7.07;;;;;;;12.26;44.90;100192.13;5052394;28;20029;-37
2022/04/15 02:25:33;;;;;;;17.98;8.45;;;;;;;12.36;44.39;100194.41;5052252;28;20048;-37
2022/04/15 02:27:58;;;;;;;15.13;7.93;;;;;;;12.23;46.14;100194.38;5051950;28;20053;-37
2022/04/15 02:30:24;;;;;;;18.27;8.20;;;;;;;12.29;45.16;100194.38;5050670;28;20111;-37
2022/04/15 02:32:49;;;;;;;16.42;7.90;;;;;;;12.08;46.59;100194.56;5052002;28;20036;-37
2022/04/15 02:35:15;;;;;;;18.77;8.05;;;;;;;12.06;46.27;100194.75;5051230;28;20457;-37
2022/04/15 02:37:40;;;;;;;17.88;8.48;;;;;;;12.00;46.87;100200.09;5051835;28;20063;-37
2022/04/15 02:40:06;;;;;;;14.43;8.18;;;;;;;12.13;45.99;100190.25;5051755;28;20350;-37
2022/04/15 02:42:32;;;;;;;15.05;7.45;;;;;;;11.91;46.46;100188.78;5051839;28;20020;-37
2022/04/15 02:44:58;;;;;;;16.10;7.72;;;;;;;11.80;47.35;100184.78;5051999;28;20079;-38
2022/04/15 02:47:24;;;;;;;18.23;7.60;;;;;;;12.01;46.19;100188.38;5052135;28;20451;-38
2022/04/15 02:49:50;;;;;;;18.63;7.88;;;;;;;11.88;46.82;100186.47;5051486;28;20021;-38
2022/04/15 02:52:16;;;;;;;18.90;7.85;;;;;;;11.87;46.44;100190.97;5051948;28;20033;-37
2022/04/15 02:54:41;;;;;;;17.15;7.60;;;;;;;11.72;45.83;100185.81;5051795;28;20048;-38
2022/04/15 02:57:07;;;;;;;17.80;7.68;;;;;;;11.90;46.92;100182.63;5051779;28;20396;-38
2022/04/15 02:59:33;;;;;;;18.42;7.40;;;;;;;11.78;46.58;100186.03;5051301;28;20029;-37
2022/04/15 03:01:58;;;;;;;12.48;7.70;;;;;;;11.74;47.19;100188.28;5051566;28;20033;-38
2022/04/15 03:04:24;;;;;;;13.73;7.28;;;;;;;11.67;46.81;100180.28;5049514;28;20036;-36
2022/04/15 03:06:49;;;;;;;15.43;7.20;;;;;;;11.46;47.14;100183.03;5051235;28;20040;-36
2022/04/15 03:09:15;;;;;;;14.50;7.15;;;;;;;11.63;46.17;100183.50;5051351;28;20430;-36
2022/04/15 03:11:41;;;;;;;17.10;7.13;;;;;;;11.44;46.28;100185.06;5051065;28;20032;-38
2022/04/15 03:14:07;;;;;;;16.08;7.30;;;;;;;11.33;47.26;100181.16;5051154;28;20122;-38
2022/04/15 03:16:33;;;;;;;15.18;6.85;;;;;;;11.31;47.74;100184.00;5051112;28;20032;-37
2022/04/15 03:18:59;;;;;;;13.35;6.80;;;;;;;11.25;47.74;100178.63;5051147;28;20521;-38
2022/04/15 03:21:24;;;;;;;13.48;6.80;;;;;;;11.25;47.15;100186.63;5050651;28;20051;-37
2022/04/15 03:23:50;;;;;;;17.75;7.25;;;;;;;11.43;46.70;100189.59;5051380;28;20033;-37
2022/04/15 03:26:16;;;;;;;13.05;7.15;;;;;;;11.49;46.95;100191.47;5051181;28;20729;-37
2022/04/15 03:28:41;;;;;;;14.15;7.47;;;;;;;11.38;47.62;100191.19;5051222;28;20028;-38
2022/04/15 03:31:09;;;;;;;17.98;8.60;;;;;;;11.28;48.34;100202.22;5050663;28;20027;-38
2022/04/15 03:33:34;;;;;;;18.20;7.72;;;;;;;11.36;48.31;100199.38;5050517;28;20028;-38
2022/04/15 03:36:00;;;;;;;19.13;7.38;;;;;;;11.20;48.04;100208.53;5050710;28;20379;-38
2022/04/15 03:38:25;;;;;;;19.15;7.63;;;;;;;11.38;47.87;100210.66;5050898;28;20031;-38
2022/04/15 03:40:51;;;;;;;15.23;7.63;;;;;;;11.49;47.20;100209.31;5051287;28;20457;-37
2022/04/15 03:43:16;;;;;;;19.67;11.13;;;;;;;11.51;47.40;100208.06;5050903;28;20032;-37
2022/04/15 03:45:41;;;;;;;24.63;12.40;;;;;;;11.48;47.56;100212.97;5051046;28;20029;-37
2022/04/15 03:48:07;;;;;;;23.23;10.30;;;;;;;11.51;47.73;100218.72;5044470;28;20374;-49
2022/04/15 03:50:33;;;;;;;21.58;11.27;;;;;;;11.58;48.47;100209.97;5036825;28;20029;-48
2022/04/15 03:52:59;;;;;;;24.48;13.77;;;;;;;11.48;48.58;100200.50;5030589;28;20026;-48
2022/04/15 03:55:25;;;;;;;14.80;8.55;;;;;;;11.15;48.78;100208.28;5030281;28;20484;-47
2022/04/15 03:57:50;;;;;;;17.38;7.95;;;;;;;11.38;48.30;100212.53;5030670;28;20107;-47
2022/04/15 04:00:24;;;;;;;13.68;8.48;;;;;;;11.22;48.06;100216.34;5035829;28;20036;-49
2022/04/15 04:02:52;;;;;;;13.68;7.65;;;;;;;11.43;47.28;100208.25;5048463;28;20082;-48
2022/04/15 04:05:18;;;;;;;13.95;8.00;;;;;;;11.39;47.39;100204.34;5049181;28;20380;-50
2022/04/15 04:07:44;;;;;;;15.00;7.40;;;;;;;11.13;47.63;100210.34;5050160;28;20104;-47
2022/04/15 04:10:13;;;;;;;11.52;6.88;;;;;;;11.31;47.33;100213.31;5050299;28;20017;-48
2022/04/15 04:12:40;;;;;;;12.77;7.78;;;;;;;10.96;48.67;100215.94;5050115;28;20472;-48
2022/04/15 04:15:09;;;;;;;20.50;7.45;;;;;;;11.51;47.65;100217.91;5049156;28;20087;-48
2022/04/15 04:17:34;;;;;;;11.00;6.70;;;;;;;12.05;66.50;100224.28;5049565;28;20028;-47
2022/04/15 04:20:01;;;;;;;13.93;6.70;;;;;;;12.74;65.14;100224.97;5049301;28;20032;-47
2022/04/15 04:22:31;;;;;;;13.52;6.22;;;;;;;13.61;59.26;100226.53;5049223;28;20039;-47
2022/04/15 04:24:57;;;;;;;11.70;6.32;;;;;;;14.44;55.85;100228.31;5048465;28;20064;-50
2022/04/15 04:27:23;;;;;;;14.52;7.57;;;;;;;15.20;51.08;100220.28;5049125;28;20060;-48
2022/04/15 04:29:48;;;;;;;15.05;8.05;;;;;;;15.59;42.53;100224.38;5049136;28;20035;-48
2022/04/15 04:32:15;;;;;;;14.00;7.40;;;;;;;15.52;50.47;100234.38;5044797;28;20392;-55
2022/04/15 04:34:40;;;;;;;15.95;6.95;;;;;;;15.63;42.34;100225.56;5049876;28;20545;-56
2022/04/15 04:37:06;;;;;;;13.05;7.88;;;;;;;15.62;41.64;100229.28;5050005;28;20116;-53
2022/04/15 04:39:32;;;;;;;16.60;7.20;;;;;;;15.96;43.67;100237.78;5049159;28;20025;-47
2022/04/15 04:41:58;;;;;;;13.23;7.13;;;;;;;16.45;40.66;100237.72;5047884;28;20041;-50
2022/04/15 04:44:24;;;;;;;17.85;7.20;;;;;;;16.64;37.53;100240.28;5047303;28;20029;-49
2022/04/15 04:46:50;;;;;;;14.48;7.15;;;;;;;16.38;39.18;100237.78;5047951;28;20025;-48
2022/04/15 04:49:15;;;;;;;14.10;6.72;;;;;;;17.15;38.68;100247.75;5047681;28;20024;-47
2022/04/15 04:51:41;;;;;;;11.73;6.20;;;;;;;17.32;39.72;100241.63;5045474;28;20489;-50
2022/04/15 04:54:07;;;;;;;13.35;5.88;;;;;;;17.78;36.68;100240.72;5044680;28;20481;-48
2022/04/15 04:56:32;;;;;;;13.70;5.85;;;;;;;17.33;38.69;100243.28;5044367;28;20024;-48
2022/04/15 04:58:57;;;;;;;11.40;6.07;;;;;;;17.90;36.13;100243.41;5045362;28;20559;-48
2022/04/15 05:01:23;;;;;;;10.48;5.90;;;;;;;18.56;36.03;100240.25;5045469;28;20029;-48
2022/04/15 05:03:48;;;;;;;11.90;5.80;;;;;;;18.52;35.20;100242.66;5045722;28;20020;-48
2022/04/15 05:06:14;;;;;;;8.88;5.50;;;;;;;18.83;34.06;100242.34;5045798;28;20033;-48
2022/04/15 05:08:39;;;;;;;10.30;5.78;;;;;;;19.61;33.72;100245.88;5046909;28;20053;-51
2022/04/15 05:11:05;;;;;;;11.63;5.60;;;;;;;20.23;31.97;100244.69;5047421;28;20057;-47
2022/04/15 05:13:30;;;;;;;10.95;5.30;;;;;;;20.68;32.16;100243.50;5047456;28;20020;-48
2022/04/15 05:15:56;;;;;;;16.67;11.73;;;;;;;21.14;29.69;100245.72;5047297;28;20067;-51
2022/04/15 05:18:21;;;;;;;13.82;6.38;;;;;;;21.48;29.92;100246.19;5047861;28;20078;-48
2022/04/15 05:20:46;;;;;;;11.25;6.35;;;;;;;21.35;28.00;100241.22;5048464;28;20028;-48
2022/04/15 05:23:12;;;;;;;26.85;14.35;;;;;;;21.27;28.51;100239.03;5049606;28;20480;-48
2022/04/15 05:25:38;;;;;;;111.47;64.68;;;;;;;21.25;27.65;100252.00;5049143;28;20124;-48
2022/04/15 05:28:04;;;;;;;17.23;9.10;;;;;;;21.06;28.79;100251.63;5048971;28;20515;-48
2022/04/15 05:30:30;;;;;;;20.73;13.10;;;;;;;20.72;28.75;100238.41;5048271;28;20025;-49
2022/04/15 05:32:55;;;;;;;31.35;19.60;;;;;;;21.09;28.20;100251.09;5049085;28;20032;-51
2022/04/15 05:35:21;;;;;;;26.98;18.20;;;;;;;21.16;27.90;100248.97;5048135;28;20476;-50
2022/04/15 05:37:46;;;;;;;12.65;6.80;;;;;;;21.25;27.71;100250.13;5048073;28;20665;-47
2022/04/15 05:40:11;;;;;;;11.88;5.43;;;;;;;20.56;28.66;100242.84;5046477;28;20017;-49
2022/04/15 05:42:37;;;;;;;7.20;5.07;;;;;;;20.25;29.14;100249.84;5047777;28;20017;-50
2022/04/15 05:45:03;;;;;;;8.85;5.32;;;;;;;20.27;29.25;100240.41;5049575;28;20055;-49
2022/04/15 05:47:28;;;;;;;10.32;5.65;;;;;;;20.70;28.51;100240.53;5052158;28;20021;-51
2022/04/15 05:49:54;;;;;;;9.65;5.13;;;;;;;21.22;27.87;100241.69;5052038;28;20451;-49
2022/04/15 05:52:19;;;;;;;20.95;14.98;;;;;;;21.33;27.59;100245.28;5052142;28;20025;-48
2022/04/15 05:54:45;;;;;;;18.25;12.35;;;;;;;21.79;26.88;100240.91;5052009;28;20025;-47
2022/04/15 05:57:10;;;;;;;23.60;8.98;;;;;;;22.14;26.57;100241.25;5052077;28;20114;-48
2022/04/15 05:59:35;;;;;;;10.73;5.78;;;;;;;22.44;26.69;100235.09;5052281;28;20032;-47
2022/04/15 06:02:01;;;;;;;8.82;5.65;;;;;;;22.86;25.67;100236.72;5051639;28;20020;-46
2022/04/15 06:04:26;;;;;;;7.57;5.07;;;;;;;22.63;25.90;100230.75;5051775;28;20025;-51
2022/04/15 06:06:52;;;;;;;11.15;4.95;;;;;;;22.69;25.84;100230.75;5052069;28;20102;-49
2022/04/15 06:09:17;;;;;;;9.85;4.95;;;;;;;22.67;25.78;100235.66;5051840;28;20060;-48
2022/04/15 06:11:43;;;;;;;11.38;4.70;;;;;;;20.73;27.66;100229.19;5051505;28;20114;-51
2022/04/15 06:14:08;;;;;;;7.85;4.50;;;;;;;21.84;26.53;100230.09;5051557;28;20028;-47
2022/04/15 06:16:37;;;;;;;10.13;4.60;;;;;;;22.36;25.93;100228.31;5051709;28;20021;-50
2022/04/15 06:19:05;;;;;;;10.25;4.82;;;;;;;22.80;25.45;100233.19;5051709;28;20480;-48
2022/04/15 06:21:32;;;;;;;9.98;5.07;;;;;;;23.02;24.91;100232.09;5051690;28;20017;-48
2022/04/15 06:23:57;;;;;;;8.15;4.45;;;;;;;23.04;24.91;100235.38;5051154;28;20503;-52
2022/04/15 06:26:23;;;;;;;6.80;4.50;;;;;;;23.58;24.35;100242.78;5051571;28;20029;-49
2022/04/15 06:28:48;;;;;;;8.52;4.65;;;;;;;23.74;24.17;100248.16;5051332;28;20108;-48
2022/04/15 06:31:14;;;;;;;6.95;4.40;;;;;;;23.78;23.76;100231.06;5051284;28;20127;-48
2022/04/15 06:33:39;;;;;;;6.68;3.60;;;;;;;24.27;23.13;100234.81;5050890;28;20043;-50
2022/04/15 06:36:05;;;;;;;7.53;4.00;;;;;;;24.38;23.32;100238.28;5051158;28;20021;-49
2022/04/15 06:38:30;;;;;;;7.00;3.97;;;;;;;23.72;23.92;100234.88;5051353;28;20025;-48
2022/04/15 06:40:55;;;;;;;6.30;4.05;;;;;;;22.70;24.97;100235.13;5051593;28;20052;-48
2022/04/15 06:43:21;;;;;;;6.28;3.88;;;;;;;23.07;24.20;100236.72;5051103;28;20021;-49
2022/04/15 06:45:47;;;;;;;10.23;4.75;;;;;;;23.32;24.16;100235.81;5051161;28;20552;-47
2022/04/15 06:48:12;;;;;;;11.48;4.15;;;;;;;23.95;23.38;100222.56;5050679;28;20515;-48
2022/04/15 06:50:38;;;;;;;18.00;6.15;;;;;;;23.66;23.73;100227.81;5050934;28;20423;-50
2022/04/15 06:53:04;;;;;;;12.98;4.20;;;;;;;23.74;23.48;100221.81;5051187;28;20021;-49
2022/04/15 06:55:30;;;;;;;6.70;3.80;;;;;;;23.73;23.35;100227.53;5050585;28;20017;-47
2022/04/15 06:57:55;;;;;;;7.32;3.88;;;;;;;24.12;22.78;100222.19;5050354;28;20096;-48
2022/04/15 07:00:21;;;;;;;6.13;3.90;;;;;;;24.54;22.22;100222.69;5050925;28;20124;-48
2022/04/15 07:02:47;;;;;;;6.38;3.97;;;;;;;24.64;22.55;100224.53;5050785;28;20032;-48
2022/04/15 07:05:13;;;;;;;10.60;5.10;;;;;;;24.83;22.29;100220.00;5050300;28;20161;-49
2022/04/15 07:07:40;;;;;;;9.45;4.82;;;;;;;24.18;23.93;100218.31;5050137;28;20357;-50
2022/04/15 07:10:08;;;;;;;8.98;4.97;;;;;;;23.94;23.14;100223.63;5050697;28;20469;-47
2022/04/15 07:12:33;;;;;;;12.15;4.18;;;;;;;24.36;22.65;100216.81;5050486;28;20382;-48
2022/04/15 07:14:59;;;;;;;4.82;3.45;;;;;;;24.76;21.80;100225.75;5050536;28;20028;-50
2022/04/15 07:17:25;;;;;;;8.77;4.10;;;;;;;24.65;22.08;100220.69;5050500;28;20021;-50
2022/04/15 07:19:51;;;;;;;22.38;12.70;;;;;;;25.00;21.98;100225.00;5050460;28;20404;-47
2022/04/15 07:22:18;;;;;;;13.82;6.00;;;;;;;25.28;21.72;100220.63;5049725;28;20048;-48
2022/04/15 07:24:44;;;;;;;5.50;3.70;;;;;;;25.47;21.45;100214.41;5049172;28;20025;-48
2022/04/15 07:27:09;;;;;;;6.05;3.85;;;;;;;25.38;21.80;100213.44;5050384;28;20047;-47
2022/04/15 07:29:35;;;;;;;8.15;5.25;;;;;;;25.04;22.46;100215.16;5050786;28;20028;-49
2022/04/15 07:32:00;;;;;;;12.15;4.97;;;;;;;25.28;22.36;100217.88;5049888;28;20131;-52
2022/04/15 07:34:26;;;;;;;8.38;4.10;;;;;;;25.80;21.73;100214.53;5049963;28;20025;-50
2022/04/15 07:36:57;;;;;;;9.98;3.78;;;;;;;26.09;21.29;100209.78;5050038;28;20080;-51
2022/04/15 07:39:23;;;;;;;6.38;3.45;;;;;;;26.45;20.77;100205.69;5047632;28;20056;-49
2022/04/15 07:41:50;;;;;;;9.60;4.32;;;;;;;25.70;21.80;100208.13;5050423;28;20017;-48
2022/04/15 07:44:16;;;;;;;6.25;3.70;;;;;;;25.22;22.05;100205.41;5048541;28;20439;-50
2022/04/15 07:46:43;;;;;;;5.25;3.60;;;;;;;25.25;22.14;100213.03;5049892;28;20505;-49
2022/04/15 07:49:09;;;;;;;5.00;3.60;;;;;;;25.59;21.54;100203.91;5049186;28;20083;-47
2022/04/15 07:51:35;;;;;;;6.82;3.40;;;;;;;25.66;21.54;100209.00;5049784;28;20020;-48
2022/04/15 07:54:03;;;;;;;5.35;3.45;;;;;;;25.60;21.97;100210.16;5049879;28;20032;-48
2022/04/15 07:56:28;;;;;;;7.68;4.13;;;;;;;26.89;20.98;100201.66;5049926;28;20021;-49
2022/04/15 07:58:54;;;;;;;6.20;3.88;;;;;;;25.92;21.76;100198.59;5049640;28;20027;-49
2022/04/15 08:01:20;;;;;;;8.70;3.83;;;;;;;26.99;20.66;100187.00;5049384;28;20037;-48
2022/04/15 08:03:47;;;;;;;5.30;3.65;;;;;;;27.18;20.27;100195.09;5049043;28;20121;-52
2022/04/15 08:06:13;;;;;;;5.25;3.63;;;;;;;24.82;22.44;100187.63;5048863;28;20017;-51
2022/04/15 08:08:39;;;;;;;6.97;4.28;;;;;;;25.31;22.37;100186.56;5048983;28;20045;-49
2022/04/15 08:11:04;;;;;;;13.68;5.95;;;;;;;26.26;21.44;100181.16;5049210;28;20465;-48
2022/04/15 08:13:30;;;;;;;6.13;3.70;;;;;;;26.79;20.46;100175.34;5049648;28;20098;-48
2022/04/15 08:15:56;;;;;;;8.98;4.05;;;;;;;26.92;20.71;100177.28;5049002;28;20392;-49
2022/04/15 08:18:23;;;;;;;5.85;4.00;;;;;;;26.64;20.67;100173.72;5046325;28;20017;-48
2022/04/15 08:20:50;;;;;;;6.60;3.42;;;;;;;26.94;20.75;100167.97;5048570;28;20493;-52
2022/04/15 08:23:17;;;;;;;7.10;3.67;;;;;;;28.17;19.46;100165.34;5048945;28;20082;-50
2022/04/15 08:25:43;;;;;;;12.70;4.05;;;;;;;28.75;18.86;100163.63;5046406;28;20017;-48
2022/04/15 08:28:10;;;;;;;5.82;3.70;;;;;;;28.88;18.56;100164.66;5048671;28;20457;-49
2022/04/15 08:30:37;;;;;;;6.30;4.18;;;;;;;28.72;18.54;100167.00;5047571;28;20028;-49
2022/04/15 08:33:05;;;;;;;7.38;4.05;;;;;;;27.06;20.07;100166.38;5047210;28;20029;-51
2022/04/15 08:35:31;;;;;;;6.97;3.97;;;;;;;27.52;19.54;100166.56;5049240;28;20074;-51
2022/04/15 08:37:57;;;;;;;8.10;4.15;;;;;;;28.35;18.77;100160.78;5048730;28;20032;-52
2022/04/15 08:40:23;;;;;;;7.85;4.00;;;;;;;28.08;18.54;100157.91;5049124;28;20025;-49
2022/04/15 08:42:50;;;;;;;5.18;3.75;;;;;;;27.49;19.36;100146.09;5049219;28;20071;-51
2022/04/15 08:45:16;;;;;;;7.43;4.20;;;;;;;27.42;19.62;100152.00;5049099;28;20064;-52
2022/04/15 08:47:42;;;;;;;8.82;3.88;;;;;;;28.22;18.72;100141.41;5048777;28;20489;-51
2022/04/15 08:50:10;;;;;;;8.32;3.95;;;;;;;28.67;19.00;100140.56;5048861;28;20017;-51
2022/04/15 08:52:36;;;;;;;8.30;4.30;;;;;;;29.25;18.02;100133.22;5049208;28;20025;-52
2022/04/15 08:55:03;;;;;;;5.75;3.80;;;;;;;29.95;17.54;100131.34;5048940;28;20111;-52
2022/04/15 08:57:29;;;;;;;6.93;3.92;;;;;;;30.40;17.41;100133.69;5048708;28;20025;-52
2022/04/15 08:59:54;;;;;;;7.50;4.05;;;;;;;30.58;16.88;100126.22;5048845;28;20021;-52
2022/04/15 09:02:37;;;;;;;10.70;3.80;;;;;;;30.90;16.51;100121.28;5048221;28;20105;-52
2022/04/15 09:05:04;;;;;;;8.13;4.00;;;;;;;30.66;16.07;100110.84;5048470;28;20024;-51
2022/04/15 09:07:31;;;;;;;11.48;4.00;;;;;;;30.01;16.52;100112.78;5048813;28;20065;-54
2022/04/15 09:09:58;;;;;;;7.78;3.70;;;;;;;28.93;17.43;100110.53;5048955;28;20127;-50
2022/04/15 09:12:35;;;;;;;20.73;6.97;;;;;;;28.83;17.95;100110.84;5048782;28;20400;-52
2022/04/15 09:15:08;;;;;;;11.27;4.25;;;;;;;29.06;17.32;100106.06;5048422;28;20021;-49
2022/04/15 09:17:52;;;;;;;6.28;3.97;;;;;;;29.75;16.99;100099.09;5048367;28;20025;-48
2022/04/15 09:20:19;;;;;;;7.43;3.70;;;;;;;29.47;16.82;100098.56;5051212;28;20076;-49
2022/04/15 09:22:45;;;;;;;9.90;3.70;;;;;;;29.31;16.87;100095.50;5052336;28;20029;-49
2022/04/15 09:25:11;;;;;;;6.65;3.50;;;;;;;28.75;17.05;100087.78;5052234;28;20098;-53
2022/04/15 09:27:38;;;;;;;10.30;3.63;;;;;;;28.96;17.55;100088.00;5052511;28;20021;-50
2022/04/15 09:30:04;;;;;;;9.77;3.60;;;;;;;28.22;18.09;100085.91;5052770;28;20021;-52
2022/04/15 09:32:30;;;;;;;9.77;3.75;;;;;;;27.86;18.45;100078.56;5052675;28;20083;-48
2022/04/15 09:34:56;;;;;;;6.30;3.80;;;;;;;28.17;18.17;100084.09;5052004;28;20453;-51
2022/04/15 09:37:27;;;;;;;7.07;3.67;;;;;;;29.05;17.29;100072.41;5052591;28;20154;-52
2022/04/15 09:40:01;;;;;;;9.65;3.80;;;;;;;29.76;16.94;100071.34;5052286;28;20067;-51
2022/04/15 09:42:27;;;;;;;13.32;4.30;;;;;;;28.72;18.25;100068.44;5052474;28;20146;-50
2022/04/15 09:44:52;;;;;;;10.45;3.97;;;;;;;28.50;18.57;100061.88;5050833;28;20487;-52
2022/04/15 09:47:18;;;;;;;8.40;4.13;;;;;;;28.20;18.74;100058.06;5051616;28;20062;-49
2022/04/15 09:49:44;;;;;;;9.57;4.10;;;;;;;28.31;19.45;100043.00;5051801;28;20032;-52
2022/04/15 09:52:09;;;;;;;7.28;4.13;;;;;;;28.06;20.06;100055.38;5051750;28;20086;-51
2022/04/15 09:54:36;;;;;;;7.40;3.90;;;;;;;26.98;20.90;100046.94;5051334;28;20021;-49
2022/04/15 09:57:03;;;;;;;9.88;4.07;;;;;;;27.36;20.38;100045.84;5051456;28;20036;-50
2022/04/15 09:59:29;;;;;;;9.40;4.50;;;;;;;26.71;20.64;100045.03;5050687;28;20021;-51
2022/04/15 10:01:57;;;;;;;9.90;4.07;;;;;;;26.74;20.52;100047.16;5049892;28;20028;-50
2022/04/15 10:04:26;;;;;;;6.80;4.18;;;;;;;26.90;20.08;100042.19;5050421;28;20028;-50
2022/04/15 10:06:52;;;;;;;10.90;3.85;;;;;;;27.25;20.13;100037.09;5050421;28;20033;-49
2022/04/15 10:09:19;;;;;;;9.60;4.05;;;;;;;27.20;19.58;100037.97;5050846;28;20119;-49
2022/04/15 10:11:46;;;;;;;10.30;3.70;;;;;;;26.90;20.16;100025.78;5050659;28;20021;-48
2022/04/15 10:14:13;;;;;;;7.97;3.58;;;;;;;26.46;20.26;100016.31;5051075;28;20113;-49
2022/04/15 10:16:41;;;;;;;8.95;3.38;;;;;;;27.03;19.85;100015.97;5050985;28;20499;-49
2022/04/15 10:19:07;;;;;;;7.43;3.15;;;;;;;27.58;19.50;100004.88;5051533;28;20037;-51
2022/04/15 10:21:37;;;;;;;5.93;3.25;;;;;;;27.33;19.78;100009.03;5051512;28;20029;-50
2022/04/15 10:24:03;;;;;;;6.07;3.20;;;;;;;27.67;20.11;99996.75;5051528;28;20110;-49
2022/04/15 10:26:42;;;;;;;4.15;3.03;;;;;;;27.22;19.72;99994.78;5051432;28;20021;-50
2022/04/15 10:29:11;;;;;;;4.68;2.95;;;;;;;27.15;19.98;99999.03;5051404;28;20025;-48
2022/04/15 10:31:48;;;;;;;3.08;2.60;;;;;;;26.50;20.12;99996.31;5050288;28;20130;-49
2022/04/15 10:34:19;;;;;;;6.97;2.80;;;;;;;26.60;19.76;99984.41;5051318;28;20180;-51
2022/04/15 10:36:47;;;;;;;3.83;2.85;;;;;;;26.03;20.63;99981.94;5051319;28;20086;-48
2022/04/15 10:39:15;;;;;;;4.00;2.70;;;;;;;26.00;20.10;99979.81;5051134;28;20373;-48
2022/04/15 10:41:41;;;;;;;25.25;19.33;;;;;;;26.72;20.33;99976.50;5051400;28;20025;-48
2022/04/15 10:44:10;;;;;;;4.43;2.88;;;;;;;27.00;19.83;99970.19;5051191;28;20048;-48
2022/04/15 10:46:37;;;;;;;4.55;2.80;;;;;;;26.60;20.07;99964.47;5050769;28;20035;-48
2022/04/15 10:49:20;;;;;;;4.97;2.80;;;;;;;26.02;20.49;99974.06;5050854;28;20048;-49
2022/04/15 10:51:46;;;;;;;4.47;3.20;;;;;;;25.72;20.92;99968.81;5051347;28;20025;-50
2022/04/15 10:54:40;;;;;;;4.32;3.10;;;;;;;26.74;20.00;99962.53;5050937;28;20036;-53
2022/04/15 10:57:20;;;;;;;4.78;3.03;;;;;;;26.13;20.88;99961.84;5046850;28;20155;-49
2022/04/15 11:02:43;;;;;;;5.10;3.88;;;;;;;26.06;21.12;99945.88;5052002;28;20075;-51
2022/04/15 11:05:14;;;;;;;11.85;4.50;;;;;;;26.34;20.21;99927.59;5051474;28;20029;-51
2022/04/15 11:08:20;;;;;;;7.22;3.92;;;;;;;25.29;21.45;99932.78;5051474;28;20108;-51
2022/04/15 11:11:07;;;;;;;6.63;3.53;;;;;;;25.63;21.82;99927.03;5049252;28;20036;-56
2022/04/15 11:13:43;;;;;;;10.80;8.18;;;;;;;25.99;21.88;99920.94;5051237;28;20441;-49
2022/04/15 11:16:15;;;;;;;7.15;3.63;;;;;;;26.08;22.12;99913.69;5051382;28;20052;-51
2022/04/15 11:18:52;;;;;;;5.38;3.50;;;;;;;26.52;21.49;99912.22;5050900;28;20406;-49
2022/04/15 11:21:36;;;;;;;9.93;4.28;;;;;;;26.30;21.43;99906.69;5048747;28;20021;-51
2022/04/15 11:24:04;;;;;;;9.40;4.03;;;;;;;25.72;21.23;99906.16;5050392;28;20435;-51